.
WxDataArchive / Data Records for 2010-09-02
2010-09-01 September 2010 2010-09-03

Data Records for Thursday, 02 September 2010

Time	Temp	Chill	HIndex	Humid	Dewpt	 Wind 	HiWind	WindDir	Rain 	Barom 
-----	----	-----	------	-----	-----	------	------	-------	-----	----- 
00:00	73.2	73.2	73.2	87	69.1	1	2	270	0.10	29.957 
00:05	72.5	72.5	72.5	88	68.7	0	2	270	0.06	29.957 
00:10	72.1	72.1	72.1	90	69.0	0	4	270	0.06	29.957 
00:15	71.8	71.8	71.8	91	69.0	0	1	270	0.01	29.952 
00:20	71.6	71.6	71.6	91	68.8	0	1	270	0.00	29.952 
00:25	71.6	71.6	71.6	92	69.1	0	1	270	0.01	29.952 
00:30	71.5	71.5	71.5	92	69.0	0	0	---	0.00	29.939 
00:35	71.5	71.5	71.5	93	69.4	0	0	---	0.00	29.939 
00:40	71.3	71.3	71.3	93	69.2	0	0	---	0.01	29.939 
00:45	71.3	71.3	71.3	93	69.2	0	0	---	0.00	29.940 
00:50	71.3	71.3	71.3	93	69.2	0	0	---	0.00	29.940 
00:55	71.3	71.3	71.3	94	69.5	0	0	---	0.00	29.940 
01:00	71.3	71.3	71.3	94	69.5	0	0	---	0.00	29.945 
01:05	71.3	71.3	71.3	94	69.5	0	0	---	0.00	29.945 
01:10	71.3	71.3	71.3	94	69.5	0	0	---	0.00	29.945 
01:15	71.3	71.3	71.3	94	69.5	0	0	---	0.00	29.948 
01:20	71.3	71.3	71.3	94	69.5	0	0	---	0.00	29.948 
01:25	71.3	71.3	71.3	94	69.5	0	1	270	0.00	29.948 
01:30	71.3	71.3	71.3	94	69.5	0	1	270	0.00	29.947 
01:35	71.3	71.3	71.3	95	69.8	0	0	---	0.00	29.947 
01:40	71.3	71.3	71.3	95	69.8	0	0	---	0.00	29.947 
01:45	71.3	71.3	71.3	95	69.8	0	0	---	0.00	29.940 
01:50	71.1	71.1	71.1	95	69.6	0	0	---	0.00	29.940 
01:55	71.3	71.3	71.3	95	69.8	0	1	270	0.00	29.940 
02:00	71.3	71.3	71.3	95	69.8	0	0	---	0.00	29.940 
02:05	71.3	71.3	71.3	95	69.8	0	0	---	0.00	29.940 
02:10	71.3	71.3	71.3	95	69.8	0	1	270	0.00	29.940 
02:15	71.3	71.3	71.3	95	69.8	0	0	---	0.00	29.939 
02:20	71.1	71.1	71.1	95	69.6	0	0	---	0.00	29.939 
02:25	71.1	71.1	71.1	95	69.6	0	0	---	0.00	29.939 
02:30	71.3	71.3	71.3	95	69.8	0	0	---	0.00	29.935 
02:35	71.3	71.3	71.3	95	69.8	0	0	---	0.01	29.935 
02:40	71.3	71.3	71.3	96	70.1	0	0	---	0.02	29.935 
02:45	71.3	71.3	71.3	95	69.8	0	0	---	0.00	29.935 
02:50	71.3	71.3	71.3	96	70.1	0	0	---	0.00	29.935 
02:55	71.3	71.3	71.3	96	70.1	0	0	---	0.00	29.935 
03:00	71.3	71.3	71.3	96	70.1	0	0	---	0.01	29.935 
03:05	71.3	71.3	71.3	96	70.1	0	0	---	0.00	29.935 
03:10	71.3	71.3	71.3	96	70.1	0	0	---	0.00	29.935 
03:15	71.3	71.3	71.3	96	70.1	0	0	---	0.01	29.935 
03:20	71.3	71.3	71.3	96	70.1	0	0	---	0.00	29.935 
03:25	71.3	71.3	71.3	96	70.1	0	0	---	0.01	29.935 
03:30	71.3	71.3	71.3	96	70.1	0	1	270	0.01	29.949 
03:35	71.3	71.3	71.3	96	70.1	0	1	270	0.03	29.949 
03:40	71.1	71.1	71.1	96	69.9	1	4	270	0.10	29.949 
03:45	70.8	70.8	70.8	96	69.6	1	3	270	0.05	29.946 
03:50	70.3	70.3	70.3	95	68.8	1	4	270	0.08	29.946 
03:55	69.9	69.9	69.9	96	68.7	0	2	338	0.01	29.946 
04:00	69.8	69.8	69.8	96	68.6	0	1	338	0.01	29.937 
04:05	69.6	69.6	69.6	96	68.4	0	1	338	0.00	29.937 
04:10	69.6	69.6	69.6	96	68.4	0	1	338	0.00	29.937 
04:15	69.8	69.8	69.8	96	68.6	0	1	338	0.01	29.940 
04:20	69.8	69.8	69.8	96	68.6	0	1	338	0.00	29.940 
04:25	69.8	69.8	69.8	96	68.6	0	1	338	0.00	29.940 
04:30	69.8	69.8	69.8	96	68.6	0	0	---	0.00	29.935 
04:35	69.9	69.9	69.9	96	68.7	0	0	---	0.00	29.935 
04:40	69.9	69.9	69.9	96	68.7	0	0	---	0.00	29.935 
04:45	69.9	69.9	69.9	96	68.7	0	0	---	0.00	29.935 
04:50	69.9	69.9	69.9	96	68.7	0	0	---	0.00	29.935 
04:55	69.9	69.9	69.9	96	68.7	0	0	---	0.00	29.935 
05:00	69.9	69.9	69.9	96	68.7	0	0	---	0.00	29.928 
05:05	69.9	69.9	69.9	96	68.7	0	0	---	0.00	29.928 
05:10	69.9	69.9	69.9	96	68.7	0	0	---	0.00	29.928 
05:15	69.9	69.9	69.9	96	68.7	0	0	---	0.00	29.933 
05:20	69.9	69.9	69.9	96	68.7	0	0	---	0.00	29.933 
05:25	69.9	69.9	69.9	96	68.7	0	0	---	0.00	29.933 
05:30	70.1	70.1	70.1	96	68.9	0	0	---	0.00	29.940 
05:35	70.1	70.1	70.1	96	68.9	0	0	---	0.04	29.940 
05:40	70.1	70.1	70.1	96	68.9	0	0	---	0.00	29.940 
05:45	70.1	70.1	70.1	96	68.9	0	0	---	0.00	29.928 
05:50	70.1	70.1	70.1	96	68.9	0	0	---	0.00	29.928 
05:55	70.1	70.1	70.1	96	68.9	0	0	---	0.00	29.928 
06:00	70.3	70.3	70.3	96	69.1	0	0	---	0.00	29.928 
06:05	70.3	70.3	70.3	96	69.1	0	0	---	0.00	29.928 
06:10	70.3	70.3	70.3	96	69.1	0	1	338	0.00	29.928 
06:15	70.3	70.3	70.3	96	69.1	0	0	---	0.00	29.928 
06:20	70.3	70.3	70.3	96	69.1	0	2	45	0.00	29.928 
06:25	70.4	70.4	70.4	96	69.2	0	1	45	0.02	29.928 
06:30	70.4	70.4	70.4	96	69.2	0	3	45	0.00	29.930 
06:35	70.4	70.4	70.4	96	69.2	0	2	45	0.02	29.930 
06:40	70.4	70.4	70.4	96	69.2	0	2	45	0.04	29.930 
06:45	70.4	70.4	70.4	96	69.2	0	2	45	0.02	29.931 
06:50	70.3	70.3	70.3	96	69.1	0	0	---	0.04	29.931 
06:55	70.3	70.3	70.3	96	69.1	0	1	45	0.05	29.931 
07:00	70.3	70.3	70.3	96	69.1	0	2	45	0.02	29.931 
07:05	70.3	70.3	70.3	96	69.1	0	1	45	0.00	29.931 
07:10	70.1	70.1	70.1	96	68.9	0	1	45	0.05	29.931 
07:15	70.1	70.1	70.1	96	68.9	0	2	45	0.01	29.942 
07:20	70.1	70.1	70.1	96	68.9	0	1	45	0.02	29.942 
07:25	70.1	70.1	70.1	96	68.9	0	2	45	0.06	29.942 
07:30	70.1	70.1	70.1	96	68.9	0	2	45	0.01	29.948 
07:35	70.3	70.3	70.3	96	69.1	0	1	45	0.05	29.948 
07:40	70.1	70.1	70.1	96	68.9	0	1	45	0.04	29.948 
07:45	70.1	70.1	70.1	96	68.9	0	2	292	0.02	29.947 
07:50	70.1	70.1	70.1	96	68.9	0	2	292	0.01	29.947 
07:55	69.9	69.9	69.9	96	68.7	0	1	292	0.01	29.947 
08:00	69.9	69.9	69.9	96	68.7	0	1	292	0.02	29.946 
08:05	69.9	69.9	69.9	96	68.7	0	1	292	0.01	29.946 
08:10	69.9	69.9	69.9	96	68.7	0	0	---	0.01	29.946 
08:15	70.1	70.1	70.1	96	68.9	0	1	292	0.00	29.947 
08:20	70.1	70.1	70.1	96	68.9	0	0	---	0.00	29.947 
08:25	70.3	70.3	70.3	96	69.1	0	0	---	0.00	29.947 
08:30	70.6	70.6	70.6	96	69.4	0	0	---	0.00	29.942 
08:35	70.8	70.8	70.8	97	69.9	0	0	---	0.00	29.942 
08:40	71.1	71.1	71.1	97	70.2	0	0	---	0.00	29.942 
08:45	71.5	71.5	71.5	97	70.6	0	0	---	0.00	29.934 
08:50	71.5	71.5	71.5	96	70.3	0	0	---	0.00	29.934 
08:55	71.5	71.5	71.5	96	70.3	0	0	---	0.00	29.934 
09:00	71.3	71.3	71.3	96	70.1	0	0	---	0.00	29.934 
09:05	71.5	71.5	71.5	96	70.3	0	0	---	0.00	29.934 
09:10	71.8	71.8	71.8	96	70.6	0	0	---	0.00	29.934 
09:15	71.8	71.8	71.8	96	70.6	0	0	---	0.00	29.934 
09:20	71.8	71.8	71.8	96	70.6	0	0	---	0.00	29.934 
09:25	71.8	71.8	71.8	96	70.6	0	0	---	0.00	29.934 
09:30	72.0	72.0	72.0	96	70.8	0	0	---	0.00	29.933 
09:35	72.0	72.0	72.0	96	70.8	0	0	---	0.00	29.933 
09:40	72.1	72.1	72.1	96	70.9	0	1	292	0.00	29.933 
09:45	72.5	72.5	72.5	96	71.3	0	0	---	0.00	29.930 
09:50	73.0	73.0	73.0	96	71.8	0	1	292	0.00	29.930 
09:55	73.0	73.0	73.0	96	71.8	0	2	292	0.00	29.930 
10:00	73.0	73.0	73.0	96	71.8	0	2	292	0.00	29.925 
10:05	73.2	73.2	73.2	96	72.0	0	0	---	0.00	29.925 
10:10	73.3	73.3	73.3	96	72.1	0	1	292	0.00	29.925 
10:15	73.9	73.9	73.9	96	72.7	0	1	292	0.00	29.925 
10:20	74.0	74.0	74.0	96	72.8	0	1	292	0.00	29.925 
10:25	74.2	74.2	74.2	96	73.0	0	1	292	0.00	29.925 
10:30	74.2	74.2	74.2	95	72.7	0	2	112	0.00	29.927 
10:35	74.4	74.4	74.4	95	72.9	1	4	112	0.00	29.927 
10:40	74.4	74.4	74.4	94	72.6	1	3	112	0.00	29.927 
10:45	74.6	74.6	74.6	93	72.4	1	3	90	0.00	29.920 
10:50	74.7	74.7	74.7	92	72.2	0	4	90	0.00	29.920 
10:55	75.3	75.3	74.5	91	72.5	1	2	90	0.00	29.920 
11:00	75.6	75.6	75.4	89	72.1	0	2	90	0.00	29.926 
11:05	76.0	76.0	76.4	87	71.8	1	4	90	0.00	29.926 
11:10	76.1	76.1	76.8	84	70.9	1	3	90	0.00	29.926 
11:15	76.5	76.5	77.7	81	70.2	0	3	90	0.00	29.924 
11:20	76.7	76.7	78.1	79	69.7	0	2	90	0.00	29.924 
11:25	77.0	77.0	78.7	77	69.2	1	4	248	0.00	29.924 
11:30	77.0	77.0	78.7	77	69.2	1	3	248	0.00	29.929 
11:35	77.0	77.0	78.7	75	68.5	2	6	270	0.00	29.929 
11:40	77.2	77.2	79.0	76	69.0	1	3	270	0.00	29.929 
11:45	77.4	77.4	79.3	77	69.6	0	1	338	0.00	29.928 
11:50	77.4	77.4	79.3	75	68.8	1	3	248	0.00	29.928 
11:55	77.7	77.7	79.7	76	69.5	1	2	248	0.00	29.928 
12:00	77.7	77.7	79.7	75	69.1	1	4	248	0.00	29.925 
12:05	77.9	77.9	80.0	75	69.3	1	2	248	0.00	29.925 
12:10	77.7	77.7	79.7	75	69.1	1	4	248	0.00	29.925 
12:15	77.7	77.7	79.7	73	68.3	2	4	248	0.00	29.926 
12:20	77.7	77.7	79.7	73	68.3	1	4	270	0.00	29.926 
12:25	77.7	77.7	79.7	74	68.7	1	3	270	0.00	29.926 
12:30	78.1	78.1	80.3	74	69.1	1	4	292	0.00	29.928 
12:35	78.5	78.5	80.9	74	69.5	1	3	292	0.00	29.928 
12:40	79.0	79.0	81.6	73	69.6	2	3	292	0.00	29.928 
12:45	79.2	79.2	81.9	72	69.4	1	3	292	0.00	29.924 
12:50	79.6	79.6	82.6	73	70.2	1	2	292	0.00	29.924 
12:55	80.1	80.1	83.4	72	70.2	2	4	270	0.00	29.924 
13:00	80.5	80.5	84.1	72	70.6	1	4	270	0.00	29.918 
13:05	80.7	80.7	84.1	70	70.0	1	3	315	0.00	29.918 
13:10	80.5	80.5	83.6	69	69.4	1	4	225	0.00	29.918 
13:15	80.5	80.5	83.6	69	69.4	1	4	248	0.00	29.912 
13:20	80.5	80.5	83.5	68	68.9	2	4	270	0.00	29.912 
13:25	79.9	79.9	82.8	70	69.2	2	5	270	0.00	29.912 
13:30	79.4	79.4	82.3	73	70.0	1	4	248	0.00	29.909 
13:35	78.6	78.6	81.1	74	69.6	2	5	270	0.00	29.909 
13:40	78.6	78.6	81.1	74	69.6	2	5	248	0.00	29.909 
13:45	79.2	79.2	81.9	72	69.4	2	5	270	0.00	29.899 
13:50	79.6	79.6	82.2	69	68.5	2	5	270	0.00	29.899 
13:55	79.9	79.9	82.6	68	68.4	2	5	270	0.00	29.899 
14:00	79.9	79.9	82.5	67	67.9	3	7	270	0.00	29.888 
14:05	79.9	79.9	82.5	67	67.9	2	5	270	0.00	29.888 
14:10	79.9	79.9	82.5	67	67.9	1	3	270	0.00	29.888 
14:15	79.9	79.9	82.5	67	67.9	3	6	270	0.00	29.888 
14:20	79.9	79.9	82.5	67	67.9	2	6	270	0.00	29.888 
14:25	80.1	80.1	82.6	66	67.7	3	6	270	0.00	29.888 
14:30	79.9	79.9	82.5	67	67.9	2	5	270	0.00	29.894 
14:35	79.8	79.8	82.3	67	67.8	2	6	270	0.00	29.894 
14:40	79.8	79.8	82.4	68	68.3	2	5	270	0.00	29.894 
14:45	79.9	79.9	82.5	67	67.9	3	9	248	0.00	29.890 
14:50	79.9	79.9	82.5	67	67.9	2	9	270	0.00	29.890 
14:55	79.9	79.9	82.5	67	67.9	2	5	270	0.00	29.890 
15:00	80.1	80.1	82.6	66	67.7	2	6	248	0.00	29.887 
15:05	80.3	80.3	82.8	65	67.4	3	9	270	0.00	29.887 
15:10	80.3	80.3	82.8	65	67.4	2	5	270	0.00	29.887 
15:15	80.5	80.5	83.1	65	67.6	2	4	248	0.00	29.883 
15:20	80.5	80.5	83.1	65	67.6	1	4	248	0.00	29.883 
15:25	80.5	80.5	83.2	66	68.1	1	4	292	0.00	29.883 
15:30	80.7	80.7	83.4	65	67.8	2	4	270	0.00	29.875 
15:35	81.2	81.2	84.0	64	67.8	3	7	248	0.00	29.875 
15:40	81.6	81.6	84.2	62	67.3	2	5	270	0.00	29.875 
15:45	81.4	81.4	83.9	62	67.1	2	7	270	0.00	29.875 
15:50	81.1	81.1	83.6	63	67.3	4	12	270	0.00	29.875 
15:55	80.9	80.9	83.7	65	68.0	2	5	270	0.00	29.875 
16:00	80.7	80.7	83.2	64	67.4	3	9	248	0.00	29.876 
16:05	80.3	80.3	82.8	65	67.4	2	6	248	0.00	29.876 
16:10	79.9	79.9	82.3	66	67.5	2	6	270	0.00	29.876 
16:15	79.8	79.8	82.3	67	67.8	2	5	248	0.00	29.866 
16:20	79.8	79.8	82.2	66	67.4	2	7	270	0.00	29.866 
16:25	79.8	79.8	82.1	65	67.0	3	11	248	0.00	29.866 
16:30	79.9	79.9	82.2	65	67.1	2	6	248	0.00	29.857 
16:35	79.9	79.9	82.2	65	67.1	2	5	270	0.00	29.857 
16:40	80.1	80.1	82.5	65	67.2	2	4	248	0.00	29.857 
16:45	80.5	80.5	83.1	65	67.6	2	9	248	0.00	29.852 
16:50	80.9	80.9	83.5	64	67.6	1	5	270	0.00	29.852 
16:55	80.9	80.9	83.4	63	67.1	3	7	270	0.00	29.852 
17:00	81.1	81.1	83.8	64	67.7	3	6	270	0.00	29.852 
17:05	81.2	81.2	83.8	63	67.4	2	5	270	0.00	29.852 
17:10	81.2	81.2	83.6	62	66.9	3	10	248	0.00	29.852 
17:15	80.9	80.9	83.4	63	67.1	2	4	315	0.00	29.851 
17:20	80.5	80.5	82.9	64	67.2	2	6	270	0.00	29.851 
17:25	80.3	80.3	82.7	64	67.0	2	3	292	0.00	29.851 
17:30	80.1	80.1	82.4	64	66.8	2	5	270	0.00	29.848 
17:35	80.3	80.3	82.5	63	66.5	2	5	270	0.00	29.848 
17:40	80.1	80.1	82.3	63	66.3	2	6	270	0.00	29.848 
17:45	80.1	80.1	82.3	63	66.3	2	6	248	0.00	29.851 
17:50	80.1	80.1	82.2	62	65.9	2	6	270	0.00	29.851 
17:55	80.1	80.1	82.0	61	65.4	2	5	270	0.00	29.851 
18:00	79.9	79.9	81.9	62	65.7	2	7	270	0.00	29.850 
18:05	79.8	79.8	81.8	62	65.6	1	5	225	0.00	29.850 
18:10	79.9	79.9	82.0	63	66.2	2	5	270	0.00	29.850 
18:15	80.3	80.3	82.4	62	66.1	1	4	292	0.00	29.849 
18:20	80.3	80.3	82.4	62	66.1	2	5	270	0.00	29.849 
18:25	80.3	80.3	82.4	62	66.1	1	7	270	0.00	29.849 
18:30	80.1	80.1	82.2	62	65.9	2	4	248	0.00	29.846 
18:35	79.9	79.9	82.0	63	66.2	1	3	248	0.00	29.846 
18:40	79.8	79.8	82.0	64	66.5	1	4	248	0.00	29.846 
18:45	79.8	79.8	82.0	64	66.5	1	4	292	0.00	29.842 
18:50	79.8	79.8	82.0	64	66.5	1	3	270	0.00	29.842 
18:55	79.8	79.8	81.9	63	66.1	2	4	270	0.00	29.842 
19:00	79.8	79.8	81.9	63	66.1	1	3	225	0.00	29.836 
19:05	79.6	79.6	81.7	64	66.3	1	4	292	0.00	29.836 
19:10	79.6	79.6	81.7	64	66.3	0	3	292	0.00	29.836 
19:15	79.4	79.4	81.6	65	66.6	1	3	292	0.00	29.836 
19:20	79.2	79.2	81.3	65	66.4	0	2	292	0.00	29.836 
19:25	79.2	79.2	81.3	65	66.4	1	3	292	0.00	29.836 
19:30	79.0	79.0	81.0	65	66.2	0	3	248	0.00	29.830 
19:35	79.0	79.0	81.0	65	66.2	0	2	248	0.00	29.830 
19:40	79.0	79.0	81.0	65	66.2	0	1	248	0.00	29.830 
19:45	78.8	78.8	80.9	66	66.5	0	1	248	0.00	29.825 
19:50	78.6	78.6	80.6	66	66.3	0	1	248	0.00	29.825 
19:55	78.5	78.5	80.5	67	66.6	0	1	248	0.00	29.825 
20:00	78.3	78.3	80.3	67	66.4	0	1	248	0.00	29.823 
20:05	78.3	78.3	80.3	67	66.4	0	2	248	0.00	29.823 
20:10	78.1	78.1	80.1	68	66.7	0	1	248	0.00	29.823 
20:15	78.1	78.1	80.1	68	66.7	0	2	248	0.00	29.823 
20:20	77.9	77.9	79.9	69	66.9	0	1	248	0.00	29.823 
20:25	77.7	77.7	79.6	68	66.3	0	1	158	0.00	29.823 
20:30	77.7	77.7	79.6	68	66.3	0	3	248	0.00	29.821 
20:35	77.7	77.7	79.6	68	66.3	0	2	248	0.00	29.821 
20:40	77.7	77.7	79.6	68	66.3	0	2	248	0.00	29.821 
20:45	77.6	77.6	79.5	68	66.2	0	1	248	0.00	29.820 
20:50	77.6	77.6	79.5	68	66.2	0	1	248	0.00	29.820 
20:55	77.6	77.6	79.5	68	66.2	0	1	248	0.00	29.820 
21:00	77.4	77.4	79.2	69	66.4	0	2	248	0.00	29.822 
21:05	77.4	77.4	79.2	69	66.4	0	2	248	0.00	29.822 
21:10	77.2	77.2	79.0	69	66.2	0	1	248	0.00	29.822 
21:15	77.0	77.0	78.8	69	66.0	0	0	---	0.00	29.821 
21:20	76.8	76.8	78.6	69	65.8	0	1	248	0.00	29.821 
21:25	76.7	76.7	78.4	70	66.2	0	1	248	0.00	29.821 
21:30	76.5	76.5	78.2	71	66.4	0	0	---	0.00	29.822 
21:35	76.3	76.3	77.9	71	66.2	0	0	---	0.00	29.822 
21:40	76.1	76.1	77.7	72	66.4	0	1	248	0.00	29.822 
21:45	76.0	76.0	77.5	73	66.7	0	0	---	0.00	29.828 
21:50	76.0	76.0	77.5	73	66.7	0	1	248	0.00	29.828 
21:55	76.0	76.0	77.5	73	66.7	0	1	248	0.00	29.828 
22:00	75.8	75.8	77.3	72	66.1	0	2	248	0.00	29.823 
22:05	75.8	75.8	77.3	72	66.1	0	2	248	0.00	29.823 
22:10	75.8	75.8	77.3	72	66.1	0	1	248	0.00	29.823 
22:15	75.8	75.8	77.3	72	66.1	0	2	248	0.00	29.817 
22:20	75.6	75.6	77.1	72	65.9	0	1	248	0.00	29.817 
22:25	75.6	75.6	77.1	72	65.9	0	1	248	0.00	29.817 
22:30	75.4	75.4	76.9	72	65.7	0	1	248	0.00	29.809 
22:35	75.3	75.3	76.8	72	65.6	0	1	248	0.00	29.809 
22:40	75.1	75.1	76.5	73	65.8	0	0	---	0.00	29.809 
22:45	74.7	74.7	74.7	73	65.5	0	2	248	0.00	29.805 
22:50	74.6	74.6	74.6	73	65.4	0	2	248	0.00	29.805 
22:55	74.4	74.4	74.4	74	65.6	0	1	248	0.00	29.805 
23:00	74.2	74.2	74.2	74	65.4	0	2	248	0.00	29.792 
23:05	74.0	74.0	74.0	75	65.6	0	3	248	0.00	29.792 
23:10	74.0	74.0	74.0	75	65.6	0	1	248	0.00	29.792 
23:15	73.9	73.9	73.9	75	65.5	0	2	248	0.00	29.780 
23:20	73.9	73.9	73.9	74	65.1	0	2	248	0.00	29.780 
23:25	74.0	74.0	74.0	74	65.2	0	1	270	0.00	29.780 
23:30	74.0	74.0	74.0	74	65.2	0	2	292	0.00	29.772 
23:35	74.2	74.2	74.2	73	65.0	0	5	225	0.00	29.772 
23:40	74.2	74.2	74.2	73	65.0	0	3	248	0.00	29.772 
23:45	74.2	74.2	74.2	73	65.0	0	2	248	0.00	29.770 
23:50	74.4	74.4	74.4	73	65.2	1	3	225	0.00	29.770 
23:55	74.6	74.6	74.6	73	65.4	0	3	338	0.00	29.770 

CoCoRaHS
IN-AL-39
A2 Web Hosting
Creative Commons License
GoDaddy
search engine by freefind advanced

loaded 2018-11-17 06:40:57 • last modified 2010-11-18 10:43:29
Privacy PolicyDisclaimer
• wx.awcolley.com is powered by PmWiki v.2002016 •
• all content (unless otherwise noted) © 2018 A W Colley